首页
METAR-TAF:

METAR-TAF

机场 :

君士坦丁, 阿尔及利亚

纬度: 36-17N, 经度: 006-37E, 海拔: 694米

当前天气观测

该预报发布于25分钟前的01:00 UTC
风速2节,风向多变
温度 14°C
湿度 88%
气压 1022 hPa
能见度10公里或以上
1500米以下无云,无积雨云

METAR: DABC 170100Z VRB02KT CAVOK 14/12 Q1022

时间: 02:25 (01:25 UTC)

预报

该预报发布于2小时和25分钟前的23:00 UTC
预报有效从17日的 00点(UTC)到 17日的 24点(UTC)
风速8节,风向西转西南
能见度10公里或以上
少量云层高于2600英尺
几率 30% :
短暂存在
从 17日的 14点(UTC)到 17日的 18点(UTC)
少量云层高于2300英尺, 塔状积云.

TAF: DABC 162300Z 1700/1724 24008KT 9999 FEW026 PROB30 TEMPO 1714/1718 FEW023TCU

超过4000个机场的气象观测和天气预报(METAR&TAF报告)。

可查询的气象台以黄色和红色小点在地图上表示。

将鼠标移到小点上方,可查看气象台名称。

然后点击查看天气观测和预报。

如需切换地图:点击带黑十字的绿色按钮放大地图;点击带横线的绿色按钮缩小地图;或者点击绿色箭头查看邻近地区的地图。


METAR-TAF: